Station: LAMEROO AWS

  Atmospheric Gas Attenuation - ITU Rec 676-11   --------------- db/100km ---------------
Date Time Temp RH % AH g/m3 Dew Point Wind Direction Speed kph Gust kph Barometer mB Rainfall Since 9am 24GHz 47GHz 76GHz 122GHz 134GHz 241GHz
27 13:40 15.2 56 7.27 6.5 6 7 1013.1 0 16.7 23.4 34.0 89.0 79.8 273.6
27 13:30 14.9 53 6.75 5.4 4 7 1025.5 0 15.6 23.2 32.7 85.3 74.6 254.9
27 13:20 15.3 57 7.44 6.8 4 4 1013.1 0 17.1 23.7 34.6 90.6 81.8 280.6
27 13:10 15 53 6.8 5.5 0 0 1013.1 0 15.7 22.8 32.3 84.5 74.3 254.1
27 13:00 15 58 7.44 6.8 4 7 1025.8 0 17.1 24.2 35.2 92.1 83.0 284.7
27 12:50 14.4 54 6.68 5.2 2 4 1013.1 0 15.5 22.7 32.1 84.0 73.4 250.8
27 12:40 14.6 58 7.26 6.4 6 7 1013.1 0 16.7 23.6 34.2 89.5 80.3 275.2
27 12:30 14.7 57 7.18 6.3 4 9 1026.1 0 16.5 23.9 34.4 89.8 80.1 274.4
27 12:20 14.4 53 6.55 4.9 4 4 1013.1 0 15.2 22.5 31.6 82.7 71.8 245.3
27 12:10 14.6 58 7.26 6.6 2 4 1013.1 0 16.7 23.6 34.2 89.5 80.3 275.2
27 12:00 14.2 62 7.57 7 6 9 1026.5 0 17.4 24.6 36.1 94.4 85.6 293.5
27 11:50 13.8 59 7.03 6.1 7 9 1013.1 0 16.2 23.4 33.7 88.1 78.2 267.9
27 11:40 14.6 60 7.51 6.9 15 17 1013.1 0 17.2 23.9 35.2 92.1 83.4 286.1
27 11:30 13.9 58 6.95 5.8 6 11 1026.9 0 16.1 23.8 33.9 88.5 78.1 267.2
27 11:20 13.4 61 7.09 6 6 7 1013.1 0 16.4 23.6 34.1 89.2 79.4 271.9
27 11:10 13.2 64 7.35 6.5 9 11 1013.1 0 16.9 24.1 35.2 92.0 82.9 284.1
27 11:00 14 67 8.08 8 7 13 1027.4 0 18.5 25.5 38.2 100.1 92.5 317.5
27 10:50 12.9 67 7.55 6.9 6 7 1013.1 0 17.4 24.5 36.1 94.5 85.8 294.1
27 10:40 12.8 67 7.51 6.8 9 11 1013.1 0 17.3 24.4 36.0 94.2 85.4 292.7
27 10:30 13.5 69 8.07 7.9 6 13 1027.6 0 18.5 25.7 38.5 100.7 92.9 319.1
27 10:20 12.8 65 7.28 6.4 9 11 1013.1 0 16.8 24.1 35.1 91.8 82.4 282.4
27 10:10 12.6 66 7.3 6.4 7 9 1013.1 0 16.9 24.2 35.2 92.2 82.9 284.0
27 10:00 12.6 71 7.86 7.5 9 15 1027.7 0 18.1 25.6 38.1 99.6 91.2 313.1
27 09:50 12.4 68 7.43 6.6 6 7 1013.1 0 17.2 24.4 35.8 93.8 84.8 290.6
27 09:40 12.1 67 7.19 6.3 11 13 1013.1 0 16.7 24.1 35.0 91.7 82.0 280.8
27 09:30 12.5 68 7.48 6.8 9 20 1027.8 0 17.2 25.0 36.6 95.7 86.4 296.0
27 09:20 12.3 73 7.93 7.6 7 9 1013.1 0 18.2 25.2 37.8 99.2 91.4 313.8
27 09:10 11.6 75 7.8 7.3 6 7 1013.1 0 18.0 25.2 37.7 98.7 90.5 310.5
27 09:00 11.5 78 8.06 7.8 9 15 1027.8 0 18.5 26.2 39.4 103.2 95.2 326.9
27 08:50 11.2 81 8.21 8 13 17 1013.1 0 18.9 26.0 39.5 103.7 96.5 331.3
27 08:40 11.1 82 8.26 8.1 7 9 1013.1 0 19.0 26.1 39.8 104.3 97.3 334.1
27 08:30 10.8 85 8.4 8.4 11 13 1027.7 0 19.3 27.0 41.2 107.9 100.8 346.2
27 08:20 10.3 86 8.24 8 13 15 1013.1 0 19.0 26.3 40.1 105.2 98.0 336.6
27 08:10 9.9 88 8.22 8.1 11 13 1013.1 0 19.0 26.4 40.2 105.5 98.2 337.4
27 08:00 9.5 92 8.38 8.3 9 13 1027.4 0 19.3 27.4 41.8 109.4 102.2 350.9
27 07:50 9.1 95 8.43 8.3 9 9 1013.1 0 19.5 27.0 41.5 109.0 102.2 351.1
27 07:40 8.7 96 8.31 8.1 7 9 1013.1 0 19.2 26.9 41.2 108.2 101.0 347.1
27 07:30 8 97 8.02 7.6 9 11 1026.8 0 18.6 27.2 41.0 107.3 99.0 339.7
27 07:20 7.5 97 7.77 7 9 11 1013.1 0 18.1 26.4 39.5 103.7 95.0 325.8
27 07:10 7.1 97 7.57 6.6 9 9 1013.1 0 17.7 26.1 38.9 101.9 92.7 317.7
27 07:00 6.5 97 7.28 6.1 7 9 1026.5 0 17.1 26.4 38.6 100.8 90.4 309.4
27 06:50 5.7 97 6.91 5.2 7 9 1013.1 0 16.3 25.4 36.8 96.3 85.2 291.1
27 06:40 5 97 6.6 4.5 7 9 1013.1 0 15.7 25.1 35.8 93.7 81.7 278.6
27 06:30 4.5 97 6.38 4.1 11 13 1025.9 0 15.2 25.4 35.7 93.1 80.0 272.7
27 06:20 3.9 97 6.13 3.4 9 11 1013.1 0 14.7 24.6 34.3 89.7 76.3 259.8
27 06:10 3.9 96 6.07 3.3 7 7 1013.1 0 14.6 24.5 34.1 89.1 75.5 256.9
27 06:00 3.9 97 6.13 3.5 6 6 1025.5 0 14.7 25.1 34.9 91.0 77.2 262.5
27 05:50 3.3 96 5.83 2.7 6 6 1013.1 0 14.1 24.3 33.3 87.1 72.8 247.3
27 05:40 4 96 6.11 3.4 6 6 1013.1 0 14.7 24.6 34.2 89.4 75.9 258.5
27 05:30 4.2 96 6.19 3.6 6 7 1025.1 0 14.8 25.1 35.0 91.2 77.7 264.3
27 05:10 4.6 97 6.42 4.1 4 4 1013.1 0 15.3 24.9 35.2 92.2 79.6 271.4
27 04:40 3.5 97 5.97 3 7 7 1013.1 0 14.4 24.5 33.8 88.4 74.5 253.4
27 04:30 3 96 5.71 2.4 9 9 1024.3 0 13.8 24.6 33.4 87.2 72.1 244.8
27 04:20 2.8 96 5.64 2.2 9 9 1013.1 0 13.7 24.1 32.8 85.5 70.7 239.8
27 04:10 2.8 96 5.64 2.2 9 9 1013.1 0 13.7 24.1 32.8 85.5 70.7 239.8
27 04:00 2.6 96 5.56 2 11 13 1024.2 0 13.5 24.5 33.0 85.9 70.4 238.8
27 03:50 2.9 96 5.67 2.3 11 11 1013.1 0 13.7 24.1 32.8 85.8 71.0 240.9
27 03:40 3.3 96 5.83 2.7 7 7 1013.1 0 14.1 24.3 33.3 87.1 72.8 247.3
27 03:30 3.5 96 5.91 2.9 7 9 1023.9 0 14.2 24.8 34.0 88.8 74.4 252.8
27 03:20 3.5 96 5.91 2.9 7 7 1013.1 0 14.2 24.4 33.6 87.8 73.7 250.5
27 03:10 3.5 96 5.91 2.9 9 9 1013.1 0 14.2 24.4 33.6 87.8 73.7 250.5
27 03:00 3.2 95 5.73 2.5 9 9 1023.7 0 13.9 24.6 33.4 87.1 72.2 245.0
27 02:50 3.6 94 5.82 2.8 9 9 1013.1 0 14.0 24.2 33.2 86.6 72.4 245.9
27 02:40 3.7 94 5.86 2.9 9 9 1013.1 0 14.1 24.2 33.3 87.0 72.8 247.5
27 02:30 4 95 6.05 3.3 9 11 1023.6 0 14.5 24.9 34.4 89.8 75.8 257.9
27 02:20 4.2 94 6.06 3.4 9 9 1013.1 0 14.5 24.4 33.9 88.6 75.1 255.4
27 02:10 4.5 94 6.18 3.6 9 9 1013.1 0 14.8 24.6 34.3 89.6 76.4 260.2
27 02:00 5 94 6.39 4.1 11 13 1023.6 0 15.2 25.2 35.4 92.4 79.5 270.9
27 01:50 5.3 95 6.59 4.5 11 11 1013.1 0 15.6 25.0 35.6 93.2 81.2 277.1
27 01:40 5.2 95 6.55 4.4 9 11 1013.1 0 15.6 25.0 35.5 92.9 80.8 275.5
27 01:30 5.1 94 6.43 4.2 11 11 1023.7 0 15.3 25.2 35.5 92.7 80.0 272.5
27 01:20 5.5 94 6.61 4.6 11 11 1013.1 0 15.7 25.0 35.6 93.2 81.3 277.3
27 01:10 5.5 95 6.68 4.7 11 13 1013.1 0 15.8 25.1 35.9 94.0 82.2 280.7
27 01:00 5.6 95 6.72 4.9 13 15 1023.9 0 15.9 25.6 36.5 95.4 83.4 284.8
27 00:50 5.3 95 6.59 4.5 13 15 1013.1 0 15.6 25.0 35.6 93.2 81.2 277.1
27 00:40 4.9 94 6.35 4 15 15 1013.1 0 15.1 24.7 34.8 91.0 78.3 267.0
27 00:30 4.8 93 6.24 3.8 11 15 1023.8 0 14.9 25.0 34.8 91.0 77.6 264.4
27 00:20 5.2 94 6.48 4.3 11 11 1013.1 0 15.4 24.9 35.2 92.1 79.8 272.2
27 00:10 5.2 93 6.41 4.1 11 11 1013.1 0 15.3 24.7 34.9 91.3 78.8 268.8
27 00:00 5.5 93 6.54 4.5 11 11 1023.8 0 15.5 25.3 35.8 93.5 81.1 276.5
26 23:50 6.1 93 6.8 5 9 11 1013.1 0 16.1 25.1 36.1 94.6 83.2 284.3
26 23:40 6.7 93 7.07 5.6 7 7 1013.1 0 16.6 25.4 37.0 96.8 86.3 295.0
26 23:30 7 93 7.21 5.9 9 11 1023.8 0 16.9 26.0 37.9 99.1 88.7 303.3
26 23:20 7.3 94 7.43 6.4 7 9 1013.1 0 17.4 25.9 38.2 100.1 90.5 310.1
26 23:10 7.3 94 7.43 6.4 9 9 1013.1 0 17.4 25.9 38.2 100.1 90.5 310.1
26 23:00 7.3 94 7.43 6.4 9 11 1023.9 0 17.4 26.3 38.7 101.2 91.4 312.9
26 22:50 7.2 94 7.38 6.3 9 9 1013.1 0 17.3 25.8 38.0 99.7 90.0 308.1
26 22:40 6.8 94 7.19 5.9 9 9 1013.1 0 16.9 25.6 37.4 98.1 87.8 300.5
26 22:30 6.9 94 7.24 6 7 9 1023.9 0 17.0 26.1 38.1 99.6 89.2 305.2
26 22:20 6.5 93 6.98 5.4 6 6 1013.1 0 16.4 25.3 36.7 96.1 85.3 291.5
26 22:10 6 92 6.68 4.8 7 7 1013.1 0 15.8 25.0 35.7 93.4 81.7 278.9
26 22:00 5.8 92 6.59 4.6 9 11 1023.9 0 15.6 25.3 35.9 93.7 81.4 277.8
26 21:50 5.9 91 6.57 4.5 9 11 1013.1 0 15.6 24.8 35.3 92.3 80.3 274.0
26 21:40 6.2 91 6.7 4.8 9 9 1013.1 0 15.8 24.9 35.7 93.4 81.8 279.2
26 21:30 6.4 90 6.71 4.9 9 9 1024 0 15.9 25.3 36.1 94.3 82.5 281.5
26 21:20 6.9 89 6.85 5.3 9 9 1013.1 0 16.1 25.0 36.0 94.2 83.0 283.8
26 21:10 7.5 90 7.21 5.9 7 7 1013.1 0 16.9 25.4 37.2 97.4 87.3 298.7
26 21:00 7.7 89 7.22 6 7 11 1023.9 0 16.9 25.8 37.6 98.4 88.0 301.1
26 20:50 7.9 88 7.23 6 9 11 1013.1 0 16.9 25.3 37.1 97.1 87.1 298.1
26 20:40 8.2 87 7.29 6.1 9 11 1013.1 0 17.0 25.4 37.2 97.4 87.6 299.9

Last Refresh: 27-Sep-2020 13:47:24

Most of the information presented on this site is sourced from the Bureau of Meteorology.  Copyright in all material sourced from the Bureau of Meteorology resides with the Commonwealth of Australia.